createdAt,value
2019-01-20T10:33:28.665Z,4.37
2019-01-20T10:36:15.878Z,4.27
2019-01-20T10:39:04.294Z,4.50
2019-01-20T10:41:50.938Z,5.47
2019-01-20T10:44:37.875Z,4.40
2019-01-20T10:47:25.263Z,4.70
2019-01-20T10:50:15.537Z,3.90
2019-01-20T10:53:03.569Z,5.03
2019-01-20T11:52:23.645Z,5.47
2019-01-20T12:08:30.602Z,3.27
2019-01-20T12:11:13.737Z,4.47
2019-01-20T12:14:00.934Z,6.27
2019-01-20T12:16:47.742Z,6.23
2019-01-20T12:19:35.571Z,5.50
2019-01-20T12:22:22.890Z,5.60
2019-01-20T12:25:17.797Z,4.60
2019-01-20T12:28:05.042Z,3.97
2019-01-20T12:30:52.206Z,4.47
2019-01-20T12:33:39.569Z,4.40
2019-01-20T12:36:26.266Z,5.47
2019-01-20T12:39:12.917Z,4.80
2019-01-20T12:41:59.944Z,3.17
2019-01-20T12:44:46.794Z,4.40
2019-01-20T12:47:34.266Z,5.70
2019-01-20T12:50:21.437Z,5.47
2019-01-20T12:53:08.798Z,7.23
2019-01-20T12:55:56.301Z,5.67
2019-01-20T12:58:43.526Z,4.97
2019-01-20T13:01:30.401Z,4.80
2019-01-20T13:04:17.849Z,4.47
2019-01-20T13:07:04.910Z,4.53
2019-01-20T13:09:52.079Z,7.00
2019-01-20T13:12:39.409Z,5.07
2019-01-20T13:15:26.123Z,4.63
2019-01-20T13:18:13.650Z,4.53
2019-01-20T13:21:00.854Z,4.60
2019-01-20T13:23:47.734Z,4.70
2019-01-20T13:26:34.418Z,5.97
2019-01-20T13:29:21.074Z,4.77
2019-01-20T13:32:07.895Z,21.03
2019-01-20T13:34:56.120Z,9.63
2019-01-20T13:37:46.364Z,7.37
2019-01-20T13:40:42.790Z,9.17
2019-01-20T13:43:29.587Z,9.07
2019-01-20T13:46:16.485Z,11.90
2019-01-20T13:49:03.747Z,11.03
2019-01-20T13:51:50.825Z,9.00
2019-01-20T13:54:38.097Z,9.70
2019-01-20T13:57:25.005Z,8.70
2019-01-20T14:00:17.258Z,11.87
2019-01-20T14:03:04.096Z,10.63
2019-01-20T14:05:52.285Z,10.17
2019-01-20T14:08:44.168Z,10.17
2019-01-20T14:11:28.526Z,9.83
2019-01-20T14:14:15.957Z,11.03
2019-01-20T14:17:03.324Z,13.93
2019-01-20T14:19:50.057Z,12.13
2019-01-20T14:22:37.004Z,9.63
2019-01-20T14:25:30.449Z,10.43
2019-01-20T14:28:17.661Z,11.30
2019-01-20T14:31:04.550Z,9.73
2019-01-20T14:33:51.163Z,11.60
2019-01-20T14:36:37.949Z,15.67
2019-01-20T14:39:24.849Z,9.53
2019-01-20T14:42:12.446Z,13.03
2019-01-20T14:45:01.191Z,14.70
2019-01-20T14:47:48.762Z,12.03
2019-01-20T14:50:36.294Z,11.87
2019-01-20T14:53:22.846Z,10.87
2019-01-20T14:56:09.654Z,11.83
2019-01-20T14:58:56.631Z,11.70
2019-01-20T15:01:43.233Z,11.33
2019-01-20T15:04:30.431Z,13.13
2019-01-20T15:07:18.036Z,12.60
2019-01-20T15:10:08.234Z,17.37
2019-01-20T15:12:55.802Z,16.80
2019-01-20T15:15:43.257Z,12.57
2019-01-20T15:18:29.986Z,16.60
2019-01-20T15:21:16.947Z,14.00
2019-01-20T15:24:03.614Z,14.57
2019-01-20T15:26:50.338Z,14.00
2019-01-20T15:29:37.333Z,10.50
2019-01-20T15:32:24.523Z,15.80
2019-01-20T15:35:12.078Z,12.87
2019-01-20T15:37:59.338Z,11.20
2019-01-20T15:40:45.955Z,16.73
2019-01-20T15:43:32.866Z,13.33
2019-01-20T15:46:19.863Z,12.40
2019-01-20T15:49:06.598Z,12.37
2019-01-20T15:51:53.564Z,19.63
2019-01-20T15:54:40.593Z,11.03
2019-01-20T15:57:27.250Z,12.50
2019-01-20T16:00:19.666Z,12.30
2019-01-20T16:03:06.514Z,13.03
2019-01-20T16:05:53.582Z,13.97
2019-01-20T16:08:40.778Z,17.13
2019-01-20T16:11:31.346Z,18.73
2019-01-20T16:14:16.265Z,16.13
2019-01-20T16:17:03.866Z,15.20
2019-01-20T16:19:51.498Z,17.17
2019-01-20T16:22:38.732Z,13.87
2019-01-20T16:25:28.354Z,14.07
2019-01-20T16:28:17.011Z,15.33
2019-01-20T16:31:04.201Z,13.10
2019-01-20T16:33:51.169Z,13.60
2019-01-20T16:36:37.982Z,13.47
2019-01-20T16:39:25.757Z,13.10
2019-01-20T16:42:13.178Z,12.20
2019-01-20T16:44:59.984Z,18.33
2019-01-20T16:47:47.387Z,13.23
2019-01-20T16:50:34.819Z,14.50
2019-01-20T16:53:21.871Z,13.27
2019-01-20T16:56:08.902Z,12.30
2019-01-20T16:58:55.625Z,13.67
2019-01-20T17:01:42.950Z,13.57
2019-01-20T17:04:30.177Z,10.90
2019-01-20T17:07:17.513Z,11.30
2019-01-20T17:10:13.909Z,11.57
2019-01-20T17:13:01.167Z,50.13
2019-01-20T17:15:48.804Z,46.10
2019-01-20T17:18:36.738Z,22.17
2019-01-20T17:21:24.014Z,17.93
2019-01-20T17:24:11.237Z,14.43
2019-01-20T17:26:58.290Z,16.10
2019-01-20T17:29:45.513Z,12.03
2019-01-20T17:32:32.889Z,14.07
2019-01-20T17:35:19.906Z,17.20
2019-01-20T17:38:06.829Z,17.73
2019-01-20T17:40:53.865Z,18.43
2019-01-20T17:43:41.307Z,14.50
2019-01-20T17:46:28.673Z,15.17
2019-01-20T17:49:15.696Z,13.67
2019-01-20T17:52:02.654Z,12.93
2019-01-20T17:54:49.218Z,14.73
2019-01-20T17:57:52.174Z,13.67
2019-01-20T18:00:38.967Z,13.80
2019-01-20T18:03:26.023Z,14.80
2019-01-20T18:06:13.030Z,13.90
2019-01-20T18:08:59.826Z,16.93
2019-01-20T18:11:46.715Z,14.13
2019-01-20T18:14:34.122Z,19.20
2019-01-20T18:17:21.662Z,13.13
2019-01-20T18:20:11.903Z,18.10
2019-01-20T18:22:59.042Z,14.60
2019-01-20T18:25:46.458Z,15.90
2019-01-20T18:28:33.337Z,16.10
2019-01-20T18:31:20.447Z,16.33
2019-01-20T18:34:07.013Z,13.77
2019-01-20T18:36:59.173Z,16.47
2019-01-20T18:39:46.462Z,18.70
2019-01-20T18:42:32.980Z,13.73
2019-01-20T18:45:22.670Z,14.90
2019-01-20T18:48:09.721Z,15.73
2019-01-20T18:50:56.568Z,11.60
2019-01-20T18:53:43.747Z,13.03
2019-01-20T18:56:55.283Z,14.90
2019-01-20T18:59:42.650Z,15.53
2019-01-20T19:02:29.602Z,17.07
2019-01-20T19:05:17.542Z,14.83
2019-01-20T19:08:04.385Z,18.17
2019-01-20T19:10:51.530Z,13.83
2019-01-20T19:13:38.682Z,14.57
2019-01-20T19:16:26.230Z,16.00
2019-01-20T19:19:13.296Z,15.53
2019-01-20T19:22:00.042Z,42.20
2019-01-20T19:24:46.937Z,18.07
2019-01-20T19:27:33.932Z,13.50
2019-01-20T19:30:23.489Z,21.60
2019-01-20T19:33:10.313Z,19.03
2019-01-20T19:35:56.914Z,16.57
2019-01-20T19:38:43.857Z,15.33
2019-01-20T19:41:30.942Z,15.33
2019-01-20T19:44:17.966Z,14.80
2019-01-20T19:47:04.940Z,17.53
2019-01-20T19:49:51.545Z,15.50
2019-01-20T19:52:38.239Z,15.63
2019-01-20T19:55:30.099Z,16.07
2019-01-20T19:58:16.838Z,17.10
2019-01-20T20:01:05.113Z,17.60
2019-01-20T20:03:52.389Z,15.90
2019-01-20T20:06:39.402Z,17.67
2019-01-20T20:09:26.526Z,15.73
2019-01-20T20:12:13.501Z,17.73
2019-01-20T20:15:00.361Z,16.70
2019-01-20T20:17:47.305Z,18.40
2019-01-20T20:20:34.378Z,15.87
2019-01-20T20:23:21.713Z,14.27
2019-01-20T20:26:09.024Z,19.63
2019-01-20T20:28:56.243Z,20.50
2019-01-20T20:31:43.642Z,17.07
2019-01-20T20:34:30.601Z,14.87
2019-01-20T20:37:17.225Z,15.17
2019-01-20T20:40:10.634Z,17.40
2019-01-20T20:42:58.107Z,20.43
2019-01-20T20:45:51.823Z,18.07
2019-01-20T20:48:38.498Z,17.67
2019-01-20T20:51:25.713Z,20.43
2019-01-20T20:54:13.101Z,18.10
2019-01-20T20:57:00.534Z,17.23
2019-01-20T20:59:47.746Z,16.13
2019-01-20T21:02:34.901Z,16.97
2019-01-20T21:05:21.997Z,19.17
2019-01-20T21:08:09.098Z,18.60
2019-01-20T21:10:56.241Z,13.83
2019-01-20T21:13:43.430Z,17.67
2019-01-20T21:16:37.678Z,22.50
2019-01-20T21:19:19.685Z,15.93
2019-01-20T21:22:06.949Z,21.03
2019-01-20T21:24:54.139Z,23.63
2019-01-20T21:27:41.487Z,21.80
2019-01-20T21:30:29.393Z,20.00
2019-01-20T21:33:16.077Z,19.73
2019-01-20T21:36:03.038Z,18.50
2019-01-20T21:38:50.218Z,18.00
2019-01-20T21:41:37.298Z,15.80
2019-01-20T21:44:24.827Z,17.57
2019-01-20T21:47:11.742Z,19.23
2019-01-20T21:49:59.046Z,15.63
2019-01-20T21:52:45.633Z,21.80
2019-01-20T21:55:32.194Z,20.83
2019-01-20T21:58:18.902Z,19.93
2019-01-20T22:01:05.570Z,20.10
2019-01-20T22:03:52.094Z,17.87
2019-01-20T22:06:39.185Z,19.43
2019-01-20T22:09:26.464Z,19.33
2019-01-20T22:12:13.929Z,22.17
2019-01-20T22:15:00.545Z,22.80
2019-01-20T22:17:48.567Z,17.07
2019-01-20T22:20:36.129Z,19.33
2019-01-20T22:23:23.526Z,19.47
2019-01-20T22:26:11.149Z,18.73
2019-01-20T22:28:57.755Z,18.50
2019-01-20T22:31:44.614Z,20.90
2019-01-20T22:34:31.899Z,21.70
2019-01-20T22:37:18.888Z,23.13
2019-01-20T22:40:08.445Z,19.63
2019-01-20T22:42:55.376Z,25.47
2019-01-20T22:45:42.014Z,21.77
2019-01-20T22:48:29.282Z,23.17
2019-01-20T22:51:16.243Z,20.43
2019-01-20T22:54:03.149Z,22.80
2019-01-20T22:56:50.669Z,23.43
2019-01-20T22:59:37.693Z,22.47
2019-01-20T23:02:25.318Z,22.53
2019-01-20T23:05:13.358Z,25.17
2019-01-20T23:08:00.797Z,21.67
2019-01-20T23:10:48.018Z,24.73
2019-01-20T23:13:35.241Z,29.50
2019-01-20T23:16:22.581Z,24.10
2019-01-20T23:19:09.868Z,25.23
2019-01-20T23:21:57.057Z,22.60
2019-01-20T23:24:44.211Z,23.27
2019-01-20T23:27:31.100Z,23.77
2019-01-20T23:30:18.575Z,20.37
2019-01-20T23:33:05.715Z,24.73
2019-01-20T23:35:52.463Z,20.63
2019-01-20T23:38:39.269Z,28.63
2019-01-20T23:41:26.174Z,22.07
2019-01-20T23:44:13.058Z,20.57
2019-01-20T23:47:00.081Z,24.73
2019-01-20T23:49:47.097Z,22.57
2019-01-20T23:52:34.088Z,21.30
2019-01-20T23:55:21.678Z,24.43
2019-01-20T23:58:08.520Z,23.63
